sensor_id;sensor_type;location;lat;lon;timestamp;temperature;humidity
47490;DHT22;33226;56.996;14.584;2022-07-29T00:01:21;10.90;99.90
47490;DHT22;33226;56.996;14.584;2022-07-29T00:03:46;10.80;99.90
47490;DHT22;33226;56.996;14.584;2022-07-29T00:06:12;10.80;99.90
47490;DHT22;33226;56.996;14.584;2022-07-29T00:08:38;10.80;99.90
47490;DHT22;33226;56.996;14.584;2022-07-29T00:11:03;10.70;99.90
47490;DHT22;33226;56.996;14.584;2022-07-29T00:13:29;10.70;99.90
47490;DHT22;33226;56.996;14.584;2022-07-29T00:15:55;10.70;99.90
47490;DHT22;33226;56.996;14.584;2022-07-29T00:18:20;10.70;99.90
47490;DHT22;33226;56.996;14.584;2022-07-29T00:20:46;10.60;99.90
47490;DHT22;33226;56.996;14.584;2022-07-29T00:23:11;10.50;99.90
47490;DHT22;33226;56.996;14.584;2022-07-29T00:25:37;10.40;99.90
47490;DHT22;33226;56.996;14.584;2022-07-29T00:28:03;10.40;99.90
47490;DHT22;33226;56.996;14.584;2022-07-29T00:30:28;10.40;99.90
47490;DHT22;33226;56.996;14.584;2022-07-29T00:32:54;10.30;99.90
47490;DHT22;33226;56.996;14.584;2022-07-29T00:35:20;10.40;99.90
47490;DHT22;33226;56.996;14.584;2022-07-29T00:38:04;10.30;99.90
47490;DHT22;33226;56.996;14.584;2022-07-29T00:40:29;10.30;99.90
47490;DHT22;33226;56.996;14.584;2022-07-29T00:42:55;10.20;99.90
47490;DHT22;33226;56.996;14.584;2022-07-29T00:45:20;10.20;99.90
47490;DHT22;33226;56.996;14.584;2022-07-29T00:47:47;10.10;99.90
47490;DHT22;33226;56.996;14.584;2022-07-29T00:50:13;10.10;99.90
47490;DHT22;33226;56.996;14.584;2022-07-29T00:52:41;10.00;99.90
47490;DHT22;33226;56.996;14.584;2022-07-29T00:55:10;10.00;99.90
47490;DHT22;33226;56.996;14.584;2022-07-29T00:57:36;10.00;99.90
47490;DHT22;33226;56.996;14.584;2022-07-29T01:00:07;9.90;99.90
47490;DHT22;33226;56.996;14.584;2022-07-29T01:02:33;9.90;99.90
47490;DHT22;33226;56.996;14.584;2022-07-29T01:04:59;9.90;99.90
47490;DHT22;33226;56.996;14.584;2022-07-29T01:07:26;9.90;99.90
47490;DHT22;33226;56.996;14.584;2022-07-29T01:09:53;9.90;99.90
47490;DHT22;33226;56.996;14.584;2022-07-29T01:12:25;9.90;99.90
47490;DHT22;33226;56.996;14.584;2022-07-29T01:14:52;9.90;99.90
47490;DHT22;33226;56.996;14.584;2022-07-29T01:20:11;9.80;99.90
47490;DHT22;33226;56.996;14.584;2022-07-29T01:31:11;9.60;99.90
47490;DHT22;33226;56.996;14.584;2022-07-29T01:33:42;9.60;99.90
47490;DHT22;33226;56.996;14.584;2022-07-29T01:36:36;9.60;99.90
47490;DHT22;33226;56.996;14.584;2022-07-29T01:39:10;9.50;99.90
47490;DHT22;33226;56.996;14.584;2022-07-29T01:41:40;9.50;99.90
47490;DHT22;33226;56.996;14.584;2022-07-29T01:44:22;9.40;99.90
47490;DHT22;33226;56.996;14.584;2022-07-29T01:46:57;9.40;99.90
47490;DHT22;33226;56.996;14.584;2022-07-29T01:49:33;9.30;99.90
47490;DHT22;33226;56.996;14.584;2022-07-29T01:52:05;9.30;99.90
47490;DHT22;33226;56.996;14.584;2022-07-29T01:54:35;9.30;99.90
47490;DHT22;33226;56.996;14.584;2022-07-29T01:57:03;9.20;99.90
47490;DHT22;33226;56.996;14.584;2022-07-29T01:59:30;9.20;99.90
47490;DHT22;33226;56.996;14.584;2022-07-29T02:01:59;9.20;99.90
47490;DHT22;33226;56.996;14.584;2022-07-29T02:04:27;9.20;99.90
47490;DHT22;33226;56.996;14.584;2022-07-29T02:06:58;9.20;99.90
47490;DHT22;33226;56.996;14.584;2022-07-29T02:09:26;9.10;99.90
47490;DHT22;33226;56.996;14.584;2022-07-29T02:11:53;9.10;99.90
47490;DHT22;33226;56.996;14.584;2022-07-29T02:14:22;9.10;99.90
47490;DHT22;33226;56.996;14.584;2022-07-29T02:16:50;9.10;99.90
47490;DHT22;33226;56.996;14.584;2022-07-29T02:19:18;9.10;99.90
47490;DHT22;33226;56.996;14.584;2022-07-29T02:21:46;9.00;99.90
47490;DHT22;33226;56.996;14.584;2022-07-29T02:24:12;9.00;99.90
47490;DHT22;33226;56.996;14.584;2022-07-29T02:26:40;9.00;99.90
47490;DHT22;33226;56.996;14.584;2022-07-29T02:29:06;9.00;99.90
47490;DHT22;33226;56.996;14.584;2022-07-29T02:31:34;9.00;99.90
47490;DHT22;33226;56.996;14.584;2022-07-29T02:34:06;9.00;99.90
47490;DHT22;33226;56.996;14.584;2022-07-29T02:36:34;8.90;99.90
47490;DHT22;33226;56.996;14.584;2022-07-29T02:39:01;8.90;99.90
47490;DHT22;33226;56.996;14.584;2022-07-29T02:41:41;8.80;99.90
47490;DHT22;33226;56.996;14.584;2022-07-29T02:44:26;8.80;99.90
47490;DHT22;33226;56.996;14.584;2022-07-29T02:49:43;8.70;99.90
47490;DHT22;33226;56.996;14.584;2022-07-29T02:52:24;8.70;99.90
47490;DHT22;33226;56.996;14.584;2022-07-29T02:55:53;8.60;99.90
47490;DHT22;33226;56.996;14.584;2022-07-29T03:00:15;8.60;99.90
47490;DHT22;33226;56.996;14.584;2022-07-29T03:02:45;8.60;99.90
47490;DHT22;33226;56.996;14.584;2022-07-29T03:05:16;8.60;99.90
47490;DHT22;33226;56.996;14.584;2022-07-29T03:07:46;8.50;99.90
47490;DHT22;33226;56.996;14.584;2022-07-29T03:10:13;8.50;99.90
47490;DHT22;33226;56.996;14.584;2022-07-29T03:12:39;8.50;99.90
47490;DHT22;33226;56.996;14.584;2022-07-29T03:15:06;8.50;99.90
47490;DHT22;33226;56.996;14.584;2022-07-29T03:17:32;8.50;99.90
47490;DHT22;33226;56.996;14.584;2022-07-29T03:19:58;8.50;99.90
47490;DHT22;33226;56.996;14.584;2022-07-29T03:22:25;8.50;99.90
47490;DHT22;33226;56.996;14.584;2022-07-29T03:24:50;8.50;99.90
47490;DHT22;33226;56.996;14.584;2022-07-29T03:27:16;8.50;99.90
47490;DHT22;33226;56.996;14.584;2022-07-29T03:29:42;8.50;99.90
47490;DHT22;33226;56.996;14.584;2022-07-29T03:32:07;8.50;99.90
47490;DHT22;33226;56.996;14.584;2022-07-29T03:34:33;8.50;99.90
47490;DHT22;33226;56.996;14.584;2022-07-29T03:36:59;8.50;99.90
47490;DHT22;33226;56.996;14.584;2022-07-29T03:39:27;8.50;99.90
47490;DHT22;33226;56.996;14.584;2022-07-29T03:41:56;8.50;99.90
47490;DHT22;33226;56.996;14.584;2022-07-29T03:44:23;8.60;99.90
47490;DHT22;33226;56.996;14.584;2022-07-29T03:46:51;8.60;99.90
47490;DHT22;33226;56.996;14.584;2022-07-29T03:49:20;8.60;99.90
47490;DHT22;33226;56.996;14.584;2022-07-29T03:51:47;8.60;99.90
47490;DHT22;33226;56.996;14.584;2022-07-29T03:54:13;8.60;99.90
47490;DHT22;33226;56.996;14.584;2022-07-29T03:56:42;8.60;99.90
47490;DHT22;33226;56.996;14.584;2022-07-29T03:59:11;8.60;99.90
47490;DHT22;33226;56.996;14.584;2022-07-29T04:01:38;8.60;99.90
47490;DHT22;33226;56.996;14.584;2022-07-29T04:04:05;8.60;99.90
47490;DHT22;33226;56.996;14.584;2022-07-29T04:06:40;8.60;99.90
47490;DHT22;33226;56.996;14.584;2022-07-29T04:09:07;8.60;99.90
47490;DHT22;33226;56.996;14.584;2022-07-29T04:11:33;8.60;99.90
47490;DHT22;33226;56.996;14.584;2022-07-29T04:13:59;8.60;99.90
47490;DHT22;33226;56.996;14.584;2022-07-29T04:16:24;8.60;99.90
47490;DHT22;33226;56.996;14.584;2022-07-29T04:18:50;8.60;99.90
47490;DHT22;33226;56.996;14.584;2022-07-29T04:21:16;8.60;99.90
47490;DHT22;33226;56.996;14.584;2022-07-29T04:23:41;8.70;99.90
47490;DHT22;33226;56.996;14.584;2022-07-29T04:26:10;8.70;99.90
47490;DHT22;33226;56.996;14.584;2022-07-29T04:28:36;8.70;99.90
47490;DHT22;33226;56.996;14.584;2022-07-29T04:31:04;8.70;99.90
47490;DHT22;33226;56.996;14.584;2022-07-29T04:33:30;8.80;99.90
47490;DHT22;33226;56.996;14.584;2022-07-29T04:35:56;8.80;99.90
47490;DHT22;33226;56.996;14.584;2022-07-29T04:38:21;8.90;99.90
47490;DHT22;33226;56.996;14.584;2022-07-29T04:40:47;8.90;99.90
47490;DHT22;33226;56.996;14.584;2022-07-29T04:43:13;8.90;99.90
47490;DHT22;33226;56.996;14.584;2022-07-29T04:45:38;9.00;99.90
47490;DHT22;33226;56.996;14.584;2022-07-29T04:48:04;9.00;99.90
47490;DHT22;33226;56.996;14.584;2022-07-29T04:50:30;9.10;99.90
47490;DHT22;33226;56.996;14.584;2022-07-29T04:52:56;9.20;99.90
47490;DHT22;33226;56.996;14.584;2022-07-29T04:55:21;9.30;99.90
47490;DHT22;33226;56.996;14.584;2022-07-29T04:57:47;9.40;99.90
47490;DHT22;33226;56.996;14.584;2022-07-29T05:00:13;9.50;99.90
47490;DHT22;33226;56.996;14.584;2022-07-29T05:02:39;9.60;99.90
47490;DHT22;33226;56.996;14.584;2022-07-29T05:05:04;9.70;99.90
47490;DHT22;33226;56.996;14.584;2022-07-29T05:07:30;9.90;99.90
47490;DHT22;33226;56.996;14.584;2022-07-29T05:09:56;10.10;99.90
47490;DHT22;33226;56.996;14.584;2022-07-29T05:12:25;10.40;99.90
47490;DHT22;33226;56.996;14.584;2022-07-29T05:14:51;10.80;99.90
47490;DHT22;33226;56.996;14.584;2022-07-29T05:17:17;11.30;99.90
47490;DHT22;33226;56.996;14.584;2022-07-29T05:19:43;11.80;99.90
47490;DHT22;33226;56.996;14.584;2022-07-29T05:22:09;12.20;99.90
47490;DHT22;33226;56.996;14.584;2022-07-29T05:24:35;12.70;99.90
47490;DHT22;33226;56.996;14.584;2022-07-29T05:27:00;13.10;99.90
47490;DHT22;33226;56.996;14.584;2022-07-29T05:29:26;13.50;99.90
47490;DHT22;33226;56.996;14.584;2022-07-29T05:31:52;13.90;99.90
47490;DHT22;33226;56.996;14.584;2022-07-29T05:34:18;14.30;99.90
47490;DHT22;33226;56.996;14.584;2022-07-29T05:36:44;14.80;99.90
47490;DHT22;33226;56.996;14.584;2022-07-29T05:39:10;15.10;99.90
47490;DHT22;33226;56.996;14.584;2022-07-29T05:41:36;15.50;99.90
47490;DHT22;33226;56.996;14.584;2022-07-29T05:44:02;15.90;99.90
47490;DHT22;33226;56.996;14.584;2022-07-29T05:46:27;16.30;99.90
47490;DHT22;33226;56.996;14.584;2022-07-29T05:48:53;16.70;99.90
47490;DHT22;33226;56.996;14.584;2022-07-29T05:51:19;17.10;99.90
47490;DHT22;33226;56.996;14.584;2022-07-29T05:53:45;17.50;99.90
47490;DHT22;33226;56.996;14.584;2022-07-29T05:56:10;17.60;99.90
47490;DHT22;33226;56.996;14.584;2022-07-29T05:58:36;18.00;99.90
47490;DHT22;33226;56.996;14.584;2022-07-29T06:01:02;18.50;99.90
47490;DHT22;33226;56.996;14.584;2022-07-29T06:03:29;18.80;99.90
47490;DHT22;33226;56.996;14.584;2022-07-29T06:05:54;19.10;99.90
47490;DHT22;33226;56.996;14.584;2022-07-29T06:08:20;19.30;99.90
47490;DHT22;33226;56.996;14.584;2022-07-29T06:10:46;19.60;99.90
47490;DHT22;33226;56.996;14.584;2022-07-29T06:13:12;19.70;99.90
47490;DHT22;33226;56.996;14.584;2022-07-29T06:15:38;19.90;99.90
47490;DHT22;33226;56.996;14.584;2022-07-29T06:18:03;20.00;99.90
47490;DHT22;33226;56.996;14.584;2022-07-29T06:20:32;20.30;99.90
47490;DHT22;33226;56.996;14.584;2022-07-29T06:22:59;20.50;99.90
47490;DHT22;33226;56.996;14.584;2022-07-29T06:25:25;20.70;99.90
47490;DHT22;33226;56.996;14.584;2022-07-29T06:27:51;20.70;99.90
47490;DHT22;33226;56.996;14.584;2022-07-29T06:30:17;21.00;99.90
47490;DHT22;33226;56.996;14.584;2022-07-29T06:32:43;21.10;99.90
47490;DHT22;33226;56.996;14.584;2022-07-29T06:35:09;21.40;99.90
47490;DHT22;33226;56.996;14.584;2022-07-29T06:37:34;21.20;99.90
47490;DHT22;33226;56.996;14.584;2022-07-29T06:40:00;21.20;99.90
47490;DHT22;33226;56.996;14.584;2022-07-29T06:42:44;21.50;99.90
47490;DHT22;33226;56.996;14.584;2022-07-29T06:45:13;21.90;99.90
47490;DHT22;33226;56.996;14.584;2022-07-29T06:47:38;22.20;99.90
47490;DHT22;33226;56.996;14.584;2022-07-29T06:50:04;22.30;99.90
47490;DHT22;33226;56.996;14.584;2022-07-29T06:52:30;22.20;99.90
47490;DHT22;33226;56.996;14.584;2022-07-29T06:54:56;22.20;99.90
47490;DHT22;33226;56.996;14.584;2022-07-29T06:57:22;22.20;99.90
47490;DHT22;33226;56.996;14.584;2022-07-29T06:59:47;22.70;99.90
47490;DHT22;33226;56.996;14.584;2022-07-29T07:02:13;22.90;99.90
47490;DHT22;33226;56.996;14.584;2022-07-29T07:04:39;23.00;99.90
47490;DHT22;33226;56.996;14.584;2022-07-29T07:07:05;23.10;99.90
47490;DHT22;33226;56.996;14.584;2022-07-29T07:09:30;23.10;99.90
47490;DHT22;33226;56.996;14.584;2022-07-29T07:11:56;23.20;99.90
47490;DHT22;33226;56.996;14.584;2022-07-29T07:14:22;23.50;99.90
47490;DHT22;33226;56.996;14.584;2022-07-29T07:16:47;23.80;99.90
47490;DHT22;33226;56.996;14.584;2022-07-29T07:19:13;24.10;99.90
47490;DHT22;33226;56.996;14.584;2022-07-29T07:21:38;24.30;99.90
47490;DHT22;33226;56.996;14.584;2022-07-29T07:24:04;24.30;99.90
47490;DHT22;33226;56.996;14.584;2022-07-29T07:26:30;24.60;99.90
47490;DHT22;33226;56.996;14.584;2022-07-29T07:28:56;24.70;99.90
47490;DHT22;33226;56.996;14.584;2022-07-29T07:31:22;24.40;99.90
47490;DHT22;33226;56.996;14.584;2022-07-29T07:33:47;24.60;99.90
47490;DHT22;33226;56.996;14.584;2022-07-29T07:36:13;24.60;99.90
47490;DHT22;33226;56.996;14.584;2022-07-29T07:38:39;24.90;99.90
47490;DHT22;33226;56.996;14.584;2022-07-29T07:41:05;25.30;99.90
47490;DHT22;33226;56.996;14.584;2022-07-29T07:43:30;25.50;99.90
47490;DHT22;33226;56.996;14.584;2022-07-29T07:45:56;25.70;99.00
47490;DHT22;33226;56.996;14.584;2022-07-29T07:48:22;26.00;98.20
47490;DHT22;33226;56.996;14.584;2022-07-29T07:50:47;26.10;97.00
47490;DHT22;33226;56.996;14.584;2022-07-29T07:53:14;26.30;97.40
47490;DHT22;33226;56.996;14.584;2022-07-29T07:55:41;26.50;96.00
47490;DHT22;33226;56.996;14.584;2022-07-29T07:58:07;26.50;93.80
47490;DHT22;33226;56.996;14.584;2022-07-29T08:00:32;26.30;93.00
47490;DHT22;33226;56.996;14.584;2022-07-29T08:02:58;26.40;93.40
47490;DHT22;33226;56.996;14.584;2022-07-29T08:05:23;26.30;92.80
47490;DHT22;33226;56.996;14.584;2022-07-29T08:07:49;26.00;95.10
47490;DHT22;33226;56.996;14.584;2022-07-29T08:10:16;26.30;94.10
47490;DHT22;33226;56.996;14.584;2022-07-29T08:13:03;26.60;92.50
47490;DHT22;33226;56.996;14.584;2022-07-29T08:15:29;27.00;93.10
47490;DHT22;33226;56.996;14.584;2022-07-29T08:17:54;27.00;92.80
47490;DHT22;33226;56.996;14.584;2022-07-29T08:20:20;27.10;89.50
47490;DHT22;33226;56.996;14.584;2022-07-29T08:22:45;27.00;91.70
47490;DHT22;33226;56.996;14.584;2022-07-29T08:25:11;27.10;90.40
47490;DHT22;33226;56.996;14.584;2022-07-29T08:27:37;26.90;87.40
47490;DHT22;33226;56.996;14.584;2022-07-29T08:30:03;26.70;90.50
47490;DHT22;33226;56.996;14.584;2022-07-29T08:32:28;26.90;91.80
47490;DHT22;33226;56.996;14.584;2022-07-29T08:34:54;27.00;91.30
47490;DHT22;33226;56.996;14.584;2022-07-29T08:37:20;26.40;90.20
47490;DHT22;33226;56.996;14.584;2022-07-29T08:39:45;26.40;90.20
47490;DHT22;33226;56.996;14.584;2022-07-29T08:42:11;26.30;87.10
47490;DHT22;33226;56.996;14.584;2022-07-29T08:44:37;26.20;89.90
47490;DHT22;33226;56.996;14.584;2022-07-29T08:47:03;26.70;86.70
47490;DHT22;33226;56.996;14.584;2022-07-29T08:49:28;26.70;86.00
47490;DHT22;33226;56.996;14.584;2022-07-29T08:51:55;26.40;86.90
47490;DHT22;33226;56.996;14.584;2022-07-29T08:54:23;26.20;87.70
47490;DHT22;33226;56.996;14.584;2022-07-29T08:56:50;25.70;89.00
47490;DHT22;33226;56.996;14.584;2022-07-29T08:59:18;25.50;90.20
47490;DHT22;33226;56.996;14.584;2022-07-29T09:01:46;25.20;90.10
47490;DHT22;33226;56.996;14.584;2022-07-29T09:04:13;25.10;90.10
47490;DHT22;33226;56.996;14.584;2022-07-29T09:06:43;24.90;91.70
47490;DHT22;33226;56.996;14.584;2022-07-29T09:09:09;24.90;92.40
47490;DHT22;33226;56.996;14.584;2022-07-29T09:11:35;24.90;90.30
47490;DHT22;33226;56.996;14.584;2022-07-29T09:14:01;25.20;92.40
47490;DHT22;33226;56.996;14.584;2022-07-29T09:16:44;25.70;90.80
47490;DHT22;33226;56.996;14.584;2022-07-29T09:19:31;26.10;90.20
47490;DHT22;33226;56.996;14.584;2022-07-29T09:21:58;26.20;86.10
47490;DHT22;33226;56.996;14.584;2022-07-29T09:24:26;26.30;90.00
47490;DHT22;33226;56.996;14.584;2022-07-29T09:26:52;26.20;86.30
47490;DHT22;33226;56.996;14.584;2022-07-29T09:29:21;26.80;88.80
47490;DHT22;33226;56.996;14.584;2022-07-29T09:31:52;26.60;84.40
47490;DHT22;33226;56.996;14.584;2022-07-29T09:36:49;26.80;82.30
47490;DHT22;33226;56.996;14.584;2022-07-29T09:39:25;27.10;83.50
47490;DHT22;33226;56.996;14.584;2022-07-29T09:41:53;26.90;83.30
47490;DHT22;33226;56.996;14.584;2022-07-29T09:44:19;27.30;83.30
47490;DHT22;33226;56.996;14.584;2022-07-29T09:47:00;26.90;80.00
47490;DHT22;33226;56.996;14.584;2022-07-29T09:49:59;26.80;78.70
47490;DHT22;33226;56.996;14.584;2022-07-29T09:52:29;25.90;80.90
47490;DHT22;33226;56.996;14.584;2022-07-29T09:55:08;25.60;82.40
47490;DHT22;33226;56.996;14.584;2022-07-29T09:57:34;25.10;84.90
47490;DHT22;33226;56.996;14.584;2022-07-29T10:00:15;24.80;86.40
47490;DHT22;33226;56.996;14.584;2022-07-29T10:02:42;24.50;87.20
47490;DHT22;33226;56.996;14.584;2022-07-29T10:05:23;23.90;87.80
47490;DHT22;33226;56.996;14.584;2022-07-29T10:07:54;23.80;89.90
47490;DHT22;33226;56.996;14.584;2022-07-29T10:10:23;23.60;91.00
47490;DHT22;33226;56.996;14.584;2022-07-29T10:13:00;23.40;91.30
47490;DHT22;33226;56.996;14.584;2022-07-29T10:15:29;23.30;90.80
47490;DHT22;33226;56.996;14.584;2022-07-29T10:17:56;23.10;91.10
47490;DHT22;33226;56.996;14.584;2022-07-29T10:20:23;23.00;91.60
47490;DHT22;33226;56.996;14.584;2022-07-29T10:22:50;22.90;92.20
47490;DHT22;33226;56.996;14.584;2022-07-29T10:25:17;22.60;93.00
47490;DHT22;33226;56.996;14.584;2022-07-29T10:27:44;22.60;93.70
47490;DHT22;33226;56.996;14.584;2022-07-29T10:30:11;22.50;94.50
47490;DHT22;33226;56.996;14.584;2022-07-29T10:33:10;22.30;94.00
47490;DHT22;33226;56.996;14.584;2022-07-29T10:46:20;23.30;97.10
47490;DHT22;33226;56.996;14.584;2022-07-29T10:59:47;24.40;91.60
47490;DHT22;33226;56.996;14.584;2022-07-29T11:05:23;24.80;88.60
47490;DHT22;33226;56.996;14.584;2022-07-29T11:10:34;24.70;81.80
47490;DHT22;33226;56.996;14.584;2022-07-29T11:12:59;24.50;83.10
47490;DHT22;33226;56.996;14.584;2022-07-29T11:15:25;24.40;85.30
47490;DHT22;33226;56.996;14.584;2022-07-29T11:20:42;24.70;78.00
47490;DHT22;33226;56.996;14.584;2022-07-29T11:23:34;24.90;83.00
47490;DHT22;33226;56.996;14.584;2022-07-29T11:28:42;25.20;84.00
47490;DHT22;33226;56.996;14.584;2022-07-29T11:31:13;25.40;81.40
47490;DHT22;33226;56.996;14.584;2022-07-29T11:33:41;25.60;78.40
47490;DHT22;33226;56.996;14.584;2022-07-29T11:36:11;25.50;75.70
47490;DHT22;33226;56.996;14.584;2022-07-29T11:38:37;25.50;78.60
47490;DHT22;33226;56.996;14.584;2022-07-29T11:41:25;25.50;75.00
47490;DHT22;33226;56.996;14.584;2022-07-29T11:43:55;25.40;77.10
47490;DHT22;33226;56.996;14.584;2022-07-29T11:46:48;25.40;76.40
47490;DHT22;33226;56.996;14.584;2022-07-29T11:49:23;25.50;77.50
47490;DHT22;33226;56.996;14.584;2022-07-29T11:51:56;25.50;75.40
47490;DHT22;33226;56.996;14.584;2022-07-29T11:54:26;25.50;73.60
47490;DHT22;33226;56.996;14.584;2022-07-29T11:56:55;25.70;76.80
47490;DHT22;33226;56.996;14.584;2022-07-29T11:59:22;25.60;76.90
47490;DHT22;33226;56.996;14.584;2022-07-29T12:01:58;25.70;78.10
47490;DHT22;33226;56.996;14.584;2022-07-29T12:04:25;25.60;73.40
47490;DHT22;33226;56.996;14.584;2022-07-29T12:06:55;25.50;73.30
47490;DHT22;33226;56.996;14.584;2022-07-29T12:09:23;25.10;72.40
47490;DHT22;33226;56.996;14.584;2022-07-29T12:11:58;24.80;74.00
47490;DHT22;33226;56.996;14.584;2022-07-29T12:14:32;24.50;75.90
47490;DHT22;33226;56.996;14.584;2022-07-29T12:16:59;24.20;77.50
47490;DHT22;33226;56.996;14.584;2022-07-29T12:19:28;24.10;78.70
47490;DHT22;33226;56.996;14.584;2022-07-29T12:21:55;24.00;81.60
47490;DHT22;33226;56.996;14.584;2022-07-29T12:24:23;23.80;81.20
47490;DHT22;33226;56.996;14.584;2022-07-29T12:26:54;23.70;81.90
47490;DHT22;33226;56.996;14.584;2022-07-29T12:29:21;23.60;86.60
47490;DHT22;33226;56.996;14.584;2022-07-29T12:31:51;23.50;85.70
47490;DHT22;33226;56.996;14.584;2022-07-29T12:34:20;23.30;86.60
47490;DHT22;33226;56.996;14.584;2022-07-29T12:36:48;23.20;89.30
47490;DHT22;33226;56.996;14.584;2022-07-29T12:39:15;23.10;90.50
47490;DHT22;33226;56.996;14.584;2022-07-29T12:41:42;23.00;91.10
47490;DHT22;33226;56.996;14.584;2022-07-29T12:44:07;22.90;91.60
47490;DHT22;33226;56.996;14.584;2022-07-29T12:46:33;22.80;92.60
47490;DHT22;33226;56.996;14.584;2022-07-29T12:48:59;22.60;92.50
47490;DHT22;33226;56.996;14.584;2022-07-29T12:51:37;22.40;91.70
47490;DHT22;33226;56.996;14.584;2022-07-29T12:54:08;22.30;90.50
47490;DHT22;33226;56.996;14.584;2022-07-29T12:56:37;22.20;90.90
47490;DHT22;33226;56.996;14.584;2022-07-29T12:59:17;22.00;92.20
47490;DHT22;33226;56.996;14.584;2022-07-29T13:01:43;22.00;92.50
47490;DHT22;33226;56.996;14.584;2022-07-29T13:04:09;21.90;90.90
47490;DHT22;33226;56.996;14.584;2022-07-29T13:06:43;21.70;90.60
47490;DHT22;33226;56.996;14.584;2022-07-29T13:09:19;21.70;90.40
47490;DHT22;33226;56.996;14.584;2022-07-29T13:11:47;21.60;91.60
47490;DHT22;33226;56.996;14.584;2022-07-29T13:14:30;21.50;92.60
47490;DHT22;33226;56.996;14.584;2022-07-29T13:22:12;21.30;96.30
47490;DHT22;33226;56.996;14.584;2022-07-29T13:24:52;21.10;96.10
47490;DHT22;33226;56.996;14.584;2022-07-29T13:27:19;21.10;97.00
47490;DHT22;33226;56.996;14.584;2022-07-29T13:29:45;21.00;97.30
47490;DHT22;33226;56.996;14.584;2022-07-29T13:32:12;20.90;98.00
47490;DHT22;33226;56.996;14.584;2022-07-29T13:34:38;20.90;98.80
47490;DHT22;33226;56.996;14.584;2022-07-29T13:37:04;20.80;99.30
47490;DHT22;33226;56.996;14.584;2022-07-29T13:39:30;20.80;99.90
47490;DHT22;33226;56.996;14.584;2022-07-29T13:41:56;20.70;99.90
47490;DHT22;33226;56.996;14.584;2022-07-29T13:44:21;20.80;99.90
47490;DHT22;33226;56.996;14.584;2022-07-29T13:46:47;20.80;99.90
47490;DHT22;33226;56.996;14.584;2022-07-29T13:49:12;20.80;99.90
47490;DHT22;33226;56.996;14.584;2022-07-29T13:51:38;20.70;99.90
47490;DHT22;33226;56.996;14.584;2022-07-29T13:54:04;20.80;99.90
47490;DHT22;33226;56.996;14.584;2022-07-29T13:56:30;20.70;99.90
47490;DHT22;33226;56.996;14.584;2022-07-29T13:58:55;20.80;99.90
47490;DHT22;33226;56.996;14.584;2022-07-29T14:01:23;20.80;99.90
47490;DHT22;33226;56.996;14.584;2022-07-29T14:03:49;20.70;99.90
47490;DHT22;33226;56.996;14.584;2022-07-29T14:06:14;20.70;99.90
47490;DHT22;33226;56.996;14.584;2022-07-29T14:08:40;20.70;99.90
47490;DHT22;33226;56.996;14.584;2022-07-29T14:11:05;20.70;99.90
47490;DHT22;33226;56.996;14.584;2022-07-29T14:13:31;20.70;99.90
47490;DHT22;33226;56.996;14.584;2022-07-29T14:15:57;20.70;99.90
47490;DHT22;33226;56.996;14.584;2022-07-29T14:18:22;20.70;99.90
47490;DHT22;33226;56.996;14.584;2022-07-29T14:20:48;20.70;99.90
47490;DHT22;33226;56.996;14.584;2022-07-29T14:23:13;20.80;99.90
47490;DHT22;33226;56.996;14.584;2022-07-29T14:25:39;20.70;99.90
47490;DHT22;33226;56.996;14.584;2022-07-29T14:28:05;20.70;99.90
47490;DHT22;33226;56.996;14.584;2022-07-29T14:30:30;20.70;99.90
47490;DHT22;33226;56.996;14.584;2022-07-29T14:32:56;20.70;99.90
47490;DHT22;33226;56.996;14.584;2022-07-29T14:35:21;20.70;99.90
47490;DHT22;33226;56.996;14.584;2022-07-29T14:37:47;20.70;99.90
47490;DHT22;33226;56.996;14.584;2022-07-29T14:40:12;20.70;99.90
47490;DHT22;33226;56.996;14.584;2022-07-29T14:42:39;20.70;99.90
47490;DHT22;33226;56.996;14.584;2022-07-29T14:45:06;20.70;99.90
47490;DHT22;33226;56.996;14.584;2022-07-29T14:47:32;20.70;99.90
47490;DHT22;33226;56.996;14.584;2022-07-29T14:49:57;20.70;99.90
47490;DHT22;33226;56.996;14.584;2022-07-29T14:52:23;20.70;99.90
47490;DHT22;33226;56.996;14.584;2022-07-29T14:54:49;20.60;99.90
47490;DHT22;33226;56.996;14.584;2022-07-29T14:57:14;20.70;99.90
47490;DHT22;33226;56.996;14.584;2022-07-29T14:59:40;20.60;99.90
47490;DHT22;33226;56.996;14.584;2022-07-29T15:02:05;20.70;99.90
47490;DHT22;33226;56.996;14.584;2022-07-29T15:04:31;20.60;99.90
47490;DHT22;33226;56.996;14.584;2022-07-29T15:06:56;20.70;99.90
47490;DHT22;33226;56.996;14.584;2022-07-29T15:09:23;20.70;99.90
47490;DHT22;33226;56.996;14.584;2022-07-29T15:11:48;20.70;99.90
47490;DHT22;33226;56.996;14.584;2022-07-29T15:14:14;20.70;99.90
47490;DHT22;33226;56.996;14.584;2022-07-29T15:16:40;20.80;99.90
47490;DHT22;33226;56.996;14.584;2022-07-29T15:19:08;20.80;99.90
47490;DHT22;33226;56.996;14.584;2022-07-29T15:21:34;20.80;99.90
47490;DHT22;33226;56.996;14.584;2022-07-29T15:23:59;20.80;99.90
47490;DHT22;33226;56.996;14.584;2022-07-29T15:26:25;20.90;99.90
47490;DHT22;33226;56.996;14.584;2022-07-29T15:28:51;20.90;99.90
47490;DHT22;33226;56.996;14.584;2022-07-29T15:31:17;20.90;99.90
47490;DHT22;33226;56.996;14.584;2022-07-29T15:33:44;21.00;99.90
47490;DHT22;33226;56.996;14.584;2022-07-29T15:36:10;21.00;99.90
47490;DHT22;33226;56.996;14.584;2022-07-29T15:38:37;21.10;99.90
47490;DHT22;33226;56.996;14.584;2022-07-29T15:41:04;21.10;99.90
47490;DHT22;33226;56.996;14.584;2022-07-29T15:43:30;21.10;99.90
47490;DHT22;33226;56.996;14.584;2022-07-29T15:45:55;21.10;99.90
47490;DHT22;33226;56.996;14.584;2022-07-29T15:48:40;21.20;99.90
47490;DHT22;33226;56.996;14.584;2022-07-29T15:51:05;21.20;99.90
47490;DHT22;33226;56.996;14.584;2022-07-29T15:53:31;21.30;99.90
47490;DHT22;33226;56.996;14.584;2022-07-29T15:55:56;21.30;99.90
47490;DHT22;33226;56.996;14.584;2022-07-29T15:58:22;21.30;99.90
47490;DHT22;33226;56.996;14.584;2022-07-29T16:00:48;21.40;99.90
47490;DHT22;33226;56.996;14.584;2022-07-29T16:03:14;21.30;99.90
47490;DHT22;33226;56.996;14.584;2022-07-29T16:05:40;21.30;99.90
47490;DHT22;33226;56.996;14.584;2022-07-29T16:08:07;21.40;99.90
47490;DHT22;33226;56.996;14.584;2022-07-29T16:10:33;21.40;99.90
47490;DHT22;33226;56.996;14.584;2022-07-29T16:12:58;21.40;99.90
47490;DHT22;33226;56.996;14.584;2022-07-29T16:15:24;21.40;99.90
47490;DHT22;33226;56.996;14.584;2022-07-29T16:17:49;21.40;99.90
47490;DHT22;33226;56.996;14.584;2022-07-29T16:20:15;21.40;99.90
47490;DHT22;33226;56.996;14.584;2022-07-29T16:22:41;21.40;99.90